createdAt,value
2023-02-28T00:01:16.712Z,5.33
2023-02-28T00:03:43.465Z,5.32
2023-02-28T00:06:13.389Z,5.56
2023-02-28T00:08:40.204Z,5.34
2023-02-28T00:11:07.915Z,5.53
2023-02-28T00:13:40.338Z,5.35
2023-02-28T00:16:14.400Z,5.27
2023-02-28T00:18:41.051Z,5.21
2023-02-28T00:21:08.272Z,5.18
2023-02-28T00:23:35.668Z,5.15
2023-02-28T00:26:02.652Z,5.12
2023-02-28T00:28:29.526Z,5.09
2023-02-28T00:30:56.033Z,5.31
2023-02-28T00:33:22.543Z,5.09
2023-02-28T00:35:49.783Z,5.05
2023-02-28T00:38:16.686Z,5.02
2023-02-28T00:40:43.164Z,5.24
2023-02-28T00:43:09.900Z,5.00
2023-02-28T00:45:36.413Z,4.94
2023-02-28T00:48:03.133Z,4.90
2023-02-28T00:50:29.689Z,4.85
2023-02-28T00:52:56.133Z,4.82
2023-02-28T00:55:22.750Z,4.78
2023-02-28T00:57:49.185Z,4.75
2023-02-28T01:00:16.181Z,4.70
2023-02-28T01:02:42.670Z,4.66
2023-02-28T01:05:09.441Z,4.63
2023-02-28T01:07:35.937Z,4.83
2023-02-28T01:10:02.654Z,4.59
2023-02-28T01:12:30.917Z,4.54
2023-02-28T01:14:57.599Z,4.50
2023-02-28T01:17:24.199Z,4.47
2023-02-28T01:19:50.651Z,4.44
2023-02-28T01:22:17.142Z,4.41
2023-02-28T01:24:43.627Z,4.39
2023-02-28T01:27:10.116Z,4.35
2023-02-28T01:29:36.965Z,4.31
2023-02-28T01:32:03.932Z,4.30
2023-02-28T01:34:30.672Z,4.26
2023-02-28T01:36:59.887Z,4.26
2023-02-28T01:39:27.675Z,4.24
2023-02-28T01:41:54.244Z,4.19
2023-02-28T01:44:59.102Z,4.28
2023-02-28T01:47:29.948Z,4.16
2023-02-28T01:49:56.829Z,4.10
2023-02-28T01:52:23.673Z,4.31
2023-02-28T01:54:53.667Z,4.10
2023-02-28T01:57:25.010Z,4.06
2023-02-28T01:59:57.451Z,4.03
2023-02-28T02:02:25.396Z,3.97
2023-02-28T02:04:57.738Z,3.99
2023-02-28T02:07:26.354Z,3.92
2023-02-28T02:10:03.249Z,3.95
2023-02-28T02:12:32.855Z,3.92
2023-02-28T02:15:06.588Z,3.89
2023-02-28T02:17:43.735Z,3.88
2023-02-28T02:20:45.526Z,3.80
2023-02-28T02:23:40.593Z,3.85
2023-02-28T02:26:48.347Z,3.83
2023-02-28T02:29:24.886Z,3.75
2023-02-28T02:32:12.609Z,3.74
2023-02-28T02:34:47.869Z,3.67
2023-02-28T02:37:14.412Z,3.61
2023-02-28T02:39:53.897Z,3.66
2023-02-28T02:42:35.966Z,3.64
2023-02-28T02:45:10.032Z,3.59
2023-02-28T02:47:38.743Z,3.55
2023-02-28T02:50:13.532Z,3.57
2023-02-28T02:52:45.729Z,3.56
2023-02-28T02:55:14.279Z,3.53
2023-02-28T02:57:56.637Z,3.55
2023-02-28T03:00:29.195Z,3.50
2023-02-28T03:02:57.306Z,3.45
2023-02-28T03:05:31.325Z,3.47
2023-02-28T03:07:57.956Z,3.42
2023-02-28T03:10:51.153Z,3.54
2023-02-28T03:13:34.848Z,3.49
2023-02-28T03:16:28.629Z,3.51
2023-02-28T03:19:04.115Z,3.42
2023-02-28T03:21:49.486Z,3.52
2023-02-28T03:24:24.400Z,3.46
2023-02-28T03:27:02.642Z,3.47
2023-02-28T03:29:40.393Z,3.45
2023-02-28T03:32:22.574Z,3.44
2023-02-28T03:35:04.740Z,3.44
2023-02-28T03:37:36.899Z,3.37
2023-02-28T03:40:13.782Z,3.38
2023-02-28T03:42:44.427Z,3.36
2023-02-28T03:45:19.646Z,3.34
2023-02-28T03:48:10.085Z,3.30
2023-02-28T03:50:42.598Z,3.28
2023-02-28T03:53:20.681Z,3.28
2023-02-28T03:55:51.606Z,3.22
2023-02-28T03:58:45.437Z,3.27
2023-02-28T04:01:29.320Z,3.24
2023-02-28T04:03:56.272Z,3.13
2023-02-28T04:06:23.765Z,3.35
2023-02-28T04:08:51.176Z,3.15
2023-02-28T04:11:25.376Z,3.15
2023-02-28T04:13:51.924Z,3.07
2023-02-28T04:16:33.530Z,3.06
2023-02-28T04:19:03.546Z,3.02
2023-02-28T04:21:31.626Z,2.99
2023-02-28T04:24:01.544Z,2.97
2023-02-28T04:26:36.089Z,3.00
2023-02-28T04:29:05.214Z,2.96
2023-02-28T04:31:32.169Z,2.93
2023-02-28T04:33:59.026Z,2.92
2023-02-28T04:36:25.960Z,2.91
2023-02-28T04:38:52.764Z,2.89
2023-02-28T04:41:19.612Z,3.11
2023-02-28T04:43:46.206Z,2.91
2023-02-28T04:46:13.201Z,2.89
2023-02-28T04:48:40.969Z,2.88
2023-02-28T04:51:11.538Z,2.90
2023-02-28T04:53:39.982Z,2.96
2023-02-28T04:56:08.312Z,3.22
2023-02-28T04:58:35.240Z,3.59
2023-02-28T05:01:13.589Z,4.10
2023-02-28T05:03:43.779Z,4.62
2023-02-28T05:06:11.810Z,5.15
2023-02-28T05:08:38.762Z,5.64
2023-02-28T05:11:35.724Z,6.13
2023-02-28T05:14:05.737Z,6.59
2023-02-28T05:16:32.939Z,6.92
2023-02-28T05:18:59.921Z,7.20
2023-02-28T05:21:34.056Z,7.43
2023-02-28T05:24:27.118Z,7.67
2023-02-28T05:26:55.172Z,7.56
2023-02-28T05:29:22.142Z,7.47
2023-02-28T05:31:48.839Z,7.32
2023-02-28T05:34:16.627Z,7.15
2023-02-28T05:36:43.443Z,6.92
2023-02-28T05:39:13.988Z,7.03
2023-02-28T05:41:44.589Z,6.68
2023-02-28T05:44:11.961Z,6.57
2023-02-28T05:46:39.336Z,6.55
2023-02-28T05:49:06.133Z,6.56
2023-02-28T05:51:35.417Z,6.79
2023-02-28T05:54:02.659Z,6.58
2023-02-28T05:56:29.711Z,6.54
2023-02-28T05:58:56.392Z,6.46
2023-02-28T06:01:32.296Z,6.46
2023-02-28T06:04:01.141Z,6.28
2023-02-28T06:06:28.360Z,6.15
2023-02-28T06:08:55.177Z,6.01
2023-02-28T06:11:21.742Z,6.15
2023-02-28T06:13:48.850Z,5.75
2023-02-28T06:16:15.402Z,5.58
2023-02-28T06:18:42.122Z,5.43
2023-02-28T06:21:10.020Z,5.29
2023-02-28T06:23:36.776Z,5.13
2023-02-28T06:26:03.252Z,5.27
2023-02-28T06:28:29.805Z,4.88
2023-02-28T06:30:56.530Z,4.75
2023-02-28T06:33:23.229Z,4.62
2023-02-28T06:35:53.242Z,4.56
2023-02-28T06:38:20.224Z,4.40
2023-02-28T06:40:55.120Z,4.37
2023-02-28T06:43:22.294Z,4.24
2023-02-28T06:45:48.914Z,4.17
2023-02-28T06:48:15.730Z,4.13
2023-02-28T06:50:42.214Z,4.33
2023-02-28T06:53:08.859Z,4.07
2023-02-28T06:55:35.371Z,4.02
2023-02-28T06:58:01.891Z,3.99
2023-02-28T07:00:29.849Z,3.95
2023-02-28T07:02:56.747Z,3.93
2023-02-28T07:05:23.180Z,4.15
2023-02-28T07:07:49.796Z,3.93
2023-02-28T07:10:20.113Z,3.90
2023-02-28T07:12:47.028Z,3.90
2023-02-28T07:15:13.724Z,3.91
2023-02-28T07:17:40.354Z,3.93
2023-02-28T07:20:07.463Z,3.97
2023-02-28T07:22:34.025Z,3.97
2023-02-28T07:25:00.658Z,4.00
2023-02-28T07:27:27.236Z,4.02
2023-02-28T07:29:54.561Z,4.02
2023-02-28T07:32:21.495Z,4.02
2023-02-28T07:34:48.111Z,4.02
2023-02-28T07:37:14.739Z,4.02
2023-02-28T07:39:44.630Z,4.02
2023-02-28T07:42:12.939Z,4.00
2023-02-28T07:44:41.702Z,4.01
2023-02-28T07:47:09.658Z,4.03
2023-02-28T07:49:39.342Z,4.06
2023-02-28T07:52:07.901Z,4.06
2023-02-28T07:54:34.768Z,4.07
2023-02-28T07:57:01.232Z,4.31
2023-02-28T07:59:27.721Z,4.16
2023-02-28T08:01:54.384Z,4.17
2023-02-28T08:04:21.016Z,4.19
2023-02-28T08:06:47.648Z,4.20
2023-02-28T08:09:15.315Z,4.22
2023-02-28T08:11:43.234Z,4.23
2023-02-28T08:14:09.783Z,4.24
2023-02-28T08:16:36.441Z,4.27
2023-02-28T08:19:03.085Z,4.31
2023-02-28T08:21:30.034Z,4.35
2023-02-28T08:23:57.961Z,4.41
2023-02-28T08:26:24.706Z,4.48
2023-02-28T08:28:51.302Z,4.58
2023-02-28T08:31:18.382Z,4.68
2023-02-28T08:33:45.808Z,4.79
2023-02-28T08:36:13.221Z,4.91
2023-02-28T08:38:40.041Z,5.06
2023-02-28T08:41:08.335Z,5.34
2023-02-28T08:43:36.021Z,5.37
2023-02-28T08:46:02.850Z,5.49
2023-02-28T08:48:30.119Z,5.77
2023-02-28T08:51:07.808Z,5.79
2023-02-28T08:53:35.423Z,5.86
2023-02-28T08:56:05.536Z,5.96
2023-02-28T08:58:32.247Z,6.01
2023-02-28T09:00:58.842Z,6.07
2023-02-28T09:03:25.546Z,6.14
2023-02-28T09:05:57.375Z,6.20
2023-02-28T09:08:26.891Z,6.24
2023-02-28T09:10:53.513Z,6.24
2023-02-28T09:13:20.114Z,6.28
2023-02-28T09:15:47.248Z,6.34
2023-02-28T09:18:14.274Z,6.42
2023-02-28T09:20:42.571Z,6.54
2023-02-28T09:23:10.890Z,6.68
2023-02-28T09:25:38.109Z,6.82
2023-02-28T09:28:05.151Z,6.98
2023-02-28T09:30:31.913Z,7.16
2023-02-28T09:32:58.421Z,7.47
2023-02-28T09:35:27.803Z,7.56
2023-02-28T09:37:54.663Z,7.75
2023-02-28T09:40:25.219Z,8.04
2023-02-28T09:42:55.300Z,8.14
2023-02-28T09:45:33.830Z,8.35
2023-02-28T09:48:05.646Z,8.51
2023-02-28T09:50:38.050Z,8.70
2023-02-28T09:53:15.227Z,8.87
2023-02-28T09:55:51.089Z,9.06
2023-02-28T09:58:37.863Z,9.24
2023-02-28T10:01:25.857Z,9.44
2023-02-28T10:03:58.092Z,9.65
2023-02-28T10:06:32.054Z,9.69
2023-02-28T10:09:06.334Z,9.82
2023-02-28T10:11:38.880Z,9.93
2023-02-28T10:14:16.796Z,10.04
2023-02-28T10:16:52.995Z,10.13
2023-02-28T10:19:40.913Z,10.30
2023-02-28T10:22:21.910Z,10.43
2023-02-28T10:24:52.596Z,10.58
2023-02-28T10:27:23.485Z,10.73
2023-02-28T10:29:57.849Z,10.88
2023-02-28T10:32:29.999Z,10.98
2023-02-28T10:35:01.342Z,11.11
2023-02-28T10:37:29.450Z,11.22
2023-02-28T10:39:56.767Z,11.33
2023-02-28T10:42:27.562Z,11.42
2023-02-28T10:45:06.481Z,11.56
2023-02-28T10:47:35.507Z,11.63
2023-02-28T10:50:03.280Z,11.72
2023-02-28T10:52:39.890Z,11.84
2023-02-28T10:55:26.079Z,11.98
2023-02-28T10:57:53.487Z,12.04
2023-02-28T11:00:23.046Z,12.16
2023-02-28T11:02:50.111Z,12.26
2023-02-28T11:05:34.974Z,12.43
2023-02-28T11:08:13.685Z,12.52
2023-02-28T11:10:40.836Z,12.60
2023-02-28T11:13:07.489Z,12.70
2023-02-28T11:15:35.984Z,12.79
2023-02-28T11:18:14.721Z,12.88
2023-02-28T11:20:41.547Z,12.95
2023-02-28T11:23:14.684Z,13.04
2023-02-28T11:25:47.570Z,13.11
2023-02-28T11:28:29.874Z,13.25
2023-02-28T11:31:11.297Z,13.30
2023-02-28T11:33:53.487Z,13.33
2023-02-28T11:36:32.620Z,13.26
2023-02-28T11:39:10.833Z,13.21
2023-02-28T11:42:08.105Z,13.13
2023-02-28T11:44:55.851Z,13.10
2023-02-28T11:47:44.285Z,13.08
2023-02-28T11:50:36.020Z,13.06
2023-02-28T11:53:25.093Z,13.11
2023-02-28T11:56:12.374Z,13.19
2023-02-28T11:59:05.673Z,13.34
2023-02-28T12:02:07.005Z,13.48
2023-02-28T12:04:49.233Z,13.53
2023-02-28T12:08:07.107Z,13.61
2023-02-28T12:10:44.454Z,13.64
2023-02-28T12:13:22.760Z,13.67
2023-02-28T12:15:57.617Z,13.68
2023-02-28T12:18:54.297Z,13.72
2023-02-28T12:21:36.430Z,13.75
2023-02-28T12:24:23.663Z,13.78
2023-02-28T12:26:52.431Z,13.83
2023-02-28T12:29:35.172Z,13.94
2023-02-28T12:32:36.764Z,14.03
2023-02-28T12:35:13.987Z,14.16
2023-02-28T12:38:20.496Z,14.34
2023-02-28T12:41:06.983Z,14.40
2023-02-28T12:43:43.642Z,14.49
2023-02-28T12:46:15.645Z,14.61
2023-02-28T12:48:54.463Z,14.74
2023-02-28T12:51:21.643Z,14.85
2023-02-28T12:54:12.429Z,15.03
2023-02-28T12:57:14.786Z,15.16
2023-02-28T12:59:54.765Z,15.22
2023-02-28T13:02:42.320Z,15.24
2023-02-28T13:05:33.661Z,15.24
2023-02-28T13:08:21.513Z,15.17
2023-02-28T13:10:51.884Z,15.34
2023-02-28T13:13:21.629Z,15.14
2023-02-28T13:16:05.476Z,15.18
2023-02-28T13:18:45.511Z,15.16
2023-02-28T13:21:28.121Z,15.13
2023-02-28T13:23:59.213Z,15.03
2023-02-28T13:26:31.931Z,15.03
2023-02-28T13:29:01.245Z,14.95
2023-02-28T13:31:28.815Z,14.90
2023-02-28T13:33:55.518Z,14.88
2023-02-28T13:36:23.793Z,14.89
2023-02-28T13:39:01.136Z,14.94
2023-02-28T13:41:42.571Z,15.00
2023-02-28T13:44:11.933Z,14.94
2023-02-28T13:46:58.292Z,14.98
2023-02-28T13:49:27.607Z,14.81
2023-02-28T13:52:03.602Z,14.76
2023-02-28T13:54:36.762Z,14.73
2023-02-28T13:57:27.530Z,14.78
2023-02-28T14:00:09.452Z,14.66
2023-02-28T14:02:51.450Z,14.65
2023-02-28T14:05:26.643Z,14.64
2023-02-28T14:08:05.683Z,14.63
2023-02-28T14:10:38.394Z,14.54
2023-02-28T14:13:53.204Z,14.58
2023-02-28T14:16:31.023Z,14.51
2023-02-28T14:19:06.589Z,14.50
2023-02-28T14:21:39.240Z,14.53
2023-02-28T14:24:48.814Z,14.68
2023-02-28T14:27:27.446Z,14.66
2023-02-28T14:29:53.852Z,14.59
2023-02-28T14:32:49.364Z,14.69
2023-02-28T14:35:43.867Z,14.72
2023-02-28T14:38:19.101Z,14.64
2023-02-28T14:40:47.253Z,14.58
2023-02-28T14:43:23.845Z,14.61
2023-02-28T14:45:53.784Z,14.55
2023-02-28T14:48:21.657Z,14.51
2023-02-28T14:50:59.620Z,14.56
2023-02-28T14:53:36.159Z,14.48
2023-02-28T14:56:02.911Z,14.41
2023-02-28T14:58:31.748Z,14.62
2023-02-28T15:01:01.837Z,14.27
2023-02-28T15:03:34.088Z,14.22
2023-02-28T15:06:06.122Z,14.15
2023-02-28T15:08:36.875Z,14.13
2023-02-28T15:11:08.135Z,14.13
2023-02-28T15:13:42.842Z,14.12
2023-02-28T15:16:17.720Z,14.05
2023-02-28T15:18:59.307Z,14.04
2023-02-28T15:21:33.343Z,14.01
2023-02-28T15:24:16.828Z,14.00
2023-02-28T15:26:47.231Z,13.93
2023-02-28T15:29:21.620Z,13.96
2023-02-28T15:31:58.422Z,13.97
2023-02-28T15:34:42.121Z,13.91
2023-02-28T15:37:27.553Z,13.95
2023-02-28T15:39:56.014Z,13.77
2023-02-28T15:42:24.755Z,13.75
2023-02-28T15:44:51.273Z,13.66
2023-02-28T15:47:23.979Z,13.65
2023-02-28T15:49:53.092Z,13.54
2023-02-28T15:52:46.479Z,13.64
2023-02-28T15:55:27.057Z,13.53
2023-02-28T15:58:01.216Z,13.44
2023-02-28T16:00:29.830Z,13.34
2023-02-28T16:02:56.577Z,13.28
2023-02-28T16:05:29.269Z,13.25
2023-02-28T16:08:14.602Z,13.30
2023-02-28T16:10:41.163Z,13.16
2023-02-28T16:13:13.497Z,13.12
2023-02-28T16:15:44.226Z,13.11
2023-02-28T16:18:14.183Z,13.06
2023-02-28T16:20:40.965Z,12.96
2023-02-28T16:23:07.386Z,13.25
2023-02-28T16:25:43.952Z,13.00
2023-02-28T16:28:21.656Z,12.97
2023-02-28T16:30:48.360Z,12.81
2023-02-28T16:33:14.751Z,13.10
2023-02-28T16:35:41.932Z,12.78
2023-02-28T16:38:08.368Z,12.70
2023-02-28T16:40:37.095Z,12.66
2023-02-28T16:43:11.186Z,12.60
2023-02-28T16:45:37.879Z,12.48
2023-02-28T16:48:04.343Z,12.74
2023-02-28T16:50:33.532Z,12.34
2023-02-28T16:53:00.087Z,12.21
2023-02-28T16:55:27.613Z,12.12
2023-02-28T16:58:01.755Z,12.06
2023-02-28T17:00:30.781Z,11.91
2023-02-28T17:02:57.566Z,11.78
2023-02-28T17:05:25.343Z,11.68
2023-02-28T17:07:52.062Z,11.58
2023-02-28T17:10:23.594Z,11.87
2023-02-28T17:12:50.335Z,11.46
2023-02-28T17:15:18.100Z,11.71
2023-02-28T17:17:46.471Z,11.31
2023-02-28T17:20:19.039Z,11.22
2023-02-28T17:22:48.427Z,11.06
2023-02-28T17:31:06.798Z,10.77
2023-02-28T17:33:33.231Z,11.03
2023-02-28T17:36:13.332Z,10.72
2023-02-28T17:38:39.904Z,10.50
2023-02-28T17:41:06.489Z,10.42
2023-02-28T17:43:33.133Z,10.35
2023-02-28T17:45:59.827Z,10.26
2023-02-28T17:48:26.330Z,10.54
2023-02-28T17:50:52.932Z,10.14
2023-02-28T17:53:19.495Z,10.05
2023-02-28T17:55:46.088Z,9.95
2023-02-28T17:58:13.809Z,9.87
2023-02-28T18:00:40.497Z,9.78
2023-02-28T18:03:07.145Z,9.72
2023-02-28T18:05:36.544Z,9.64
2023-02-28T18:08:04.308Z,9.56
2023-02-28T18:12:57.719Z,9.42
2023-02-28T18:15:24.826Z,9.35
2023-02-28T18:17:52.011Z,9.26
2023-02-28T18:20:19.544Z,9.18
2023-02-28T18:22:46.671Z,9.10
2023-02-28T18:25:17.907Z,8.99
2023-02-28T18:27:54.386Z,8.90
2023-02-28T18:30:22.076Z,8.81
2023-02-28T18:32:49.151Z,8.67
2023-02-28T18:35:15.710Z,8.55
2023-02-28T18:37:42.256Z,8.43
2023-02-28T18:40:09.797Z,8.31
2023-02-28T18:42:36.421Z,8.19
2023-02-28T18:45:03.171Z,8.10
2023-02-28T18:47:29.696Z,8.01
2023-02-28T18:49:56.233Z,7.93
2023-02-28T18:52:22.994Z,7.86
2023-02-28T18:54:49.638Z,7.78
2023-02-28T18:57:16.226Z,7.72
2023-02-28T18:59:42.760Z,7.65
2023-02-28T19:02:10.287Z,7.58
2023-02-28T19:04:36.853Z,7.50
2023-02-28T19:07:03.386Z,7.44
2023-02-28T19:09:29.906Z,7.37
2023-02-28T19:11:56.493Z,7.28
2023-02-28T19:14:23.096Z,7.20
2023-02-28T19:16:50.900Z,7.12
2023-02-28T19:19:17.554Z,7.04
2023-02-28T19:21:44.034Z,6.99
2023-02-28T19:24:10.590Z,6.92
2023-02-28T19:26:37.751Z,6.85
2023-02-28T19:29:05.611Z,6.80
2023-02-28T19:31:32.595Z,6.71
2023-02-28T19:33:59.319Z,6.67
2023-02-28T19:36:27.037Z,6.63
2023-02-28T19:38:53.615Z,6.56
2023-02-28T19:41:20.400Z,6.51
2023-02-28T19:43:47.850Z,6.43
2023-02-28T19:46:14.652Z,6.35
2023-02-28T19:48:42.568Z,6.59
2023-02-28T19:51:12.990Z,6.29
2023-02-28T19:53:41.522Z,6.16
2023-02-28T19:56:08.758Z,6.06
2023-02-28T19:58:35.747Z,6.01
2023-02-28T20:01:12.905Z,6.03
2023-02-28T20:03:40.136Z,5.94
2023-02-28T20:06:09.972Z,5.90
2023-02-28T20:08:38.002Z,5.83
2023-02-28T20:11:06.692Z,5.79
2023-02-28T20:13:33.779Z,5.71
2023-02-28T20:16:02.852Z,5.66
2023-02-28T20:18:29.464Z,5.56
2023-02-28T20:20:56.273Z,5.49
2023-02-28T20:23:22.850Z,5.72
2023-02-28T20:25:51.495Z,5.39
2023-02-28T20:28:18.984Z,5.30
2023-02-28T20:30:48.752Z,5.21
2023-02-28T20:33:19.507Z,5.19
2023-02-28T20:35:46.330Z,5.08
2023-02-28T20:38:12.871Z,5.31
2023-02-28T20:40:39.584Z,5.03
2023-02-28T20:43:06.654Z,4.97
2023-02-28T20:45:33.184Z,4.91
2023-02-28T20:47:59.739Z,4.87
2023-02-28T20:50:26.306Z,4.83
2023-02-28T20:52:53.179Z,4.79
2023-02-28T20:55:20.483Z,5.01
2023-02-28T20:57:47.406Z,4.75
2023-02-28T21:00:18.489Z,4.95
2023-02-28T21:02:45.607Z,4.67
2023-02-28T21:05:12.132Z,4.60
2023-02-28T21:07:38.736Z,4.55
2023-02-28T21:10:06.074Z,4.49
2023-02-28T21:12:33.167Z,4.43
2023-02-28T21:14:59.709Z,4.40
2023-02-28T21:17:26.258Z,4.35
2023-02-28T21:19:52.787Z,4.32
2023-02-28T21:22:19.337Z,4.27
2023-02-28T21:24:46.133Z,4.24
2023-02-28T21:27:12.733Z,4.21
2023-02-28T21:29:39.453Z,4.17
2023-02-28T21:32:07.684Z,4.12
2023-02-28T21:34:34.256Z,4.06
2023-02-28T21:37:01.115Z,4.02
2023-02-28T21:39:30.142Z,4.21
2023-02-28T21:42:04.320Z,3.95
2023-02-28T21:44:34.636Z,3.90
2023-02-28T21:47:02.498Z,3.83
2023-02-28T21:49:29.561Z,3.77
2023-02-28T21:51:56.358Z,3.73
2023-02-28T21:54:22.830Z,3.95
2023-02-28T21:56:52.473Z,3.71
2023-02-28T21:59:19.726Z,3.64
2023-02-28T22:01:46.740Z,3.61
2023-02-28T22:04:21.262Z,3.58
2023-02-28T22:06:54.604Z,3.58
2023-02-28T22:09:21.671Z,3.50
2023-02-28T22:11:48.466Z,3.47
2023-02-28T22:14:14.945Z,3.67
2023-02-28T22:16:51.373Z,3.44
2023-02-28T22:19:19.777Z,3.38
2023-02-28T22:21:47.608Z,3.34
2023-02-28T22:24:15.561Z,3.30
2023-02-28T22:26:42.111Z,3.26
2023-02-28T22:29:08.920Z,3.24
2023-02-28T22:31:36.099Z,3.43
2023-02-28T22:34:07.363Z,3.25
2023-02-28T22:36:34.233Z,3.15
2023-02-28T22:39:01.404Z,3.11
2023-02-28T22:41:29.099Z,3.09
2023-02-28T22:43:57.744Z,3.06
2023-02-28T22:46:26.438Z,3.03
2023-02-28T22:48:53.958Z,2.99
2023-02-28T22:51:24.015Z,3.00
2023-02-28T22:53:52.032Z,2.95
2023-02-28T22:56:21.210Z,2.93
2023-02-28T22:58:52.853Z,2.93
2023-02-28T23:01:22.206Z,2.87
2023-02-28T23:03:49.050Z,2.83
2023-02-28T23:06:18.253Z,3.03
2023-02-28T23:08:44.804Z,2.82
2023-02-28T23:11:16.916Z,2.78
2023-02-28T23:13:44.020Z,2.73
2023-02-28T23:16:10.585Z,2.70
2023-02-28T23:18:37.284Z,2.65
2023-02-28T23:21:04.098Z,2.62
2023-02-28T23:23:30.682Z,2.81
2023-02-28T23:25:57.217Z,2.58
2023-02-28T23:28:23.750Z,2.52
2023-02-28T23:30:50.513Z,2.48
2023-02-28T23:33:17.047Z,2.44
2023-02-28T23:35:43.614Z,2.40
2023-02-28T23:38:10.145Z,2.37
2023-02-28T23:40:36.574Z,2.35
2023-02-28T23:43:03.079Z,2.33
2023-02-28T23:45:29.587Z,2.29
2023-02-28T23:47:56.266Z,2.27
2023-02-28T23:50:22.894Z,2.24
2023-02-28T23:52:49.453Z,2.21
2023-02-28T23:55:15.972Z,2.17
2023-02-28T23:57:42.447Z,2.14
